Decoded Metar for VTBU (RAYONG in THAILAND) (IATA:UTP) | Meteo·Mobile Aviation Weather
aviador You're here:

VTBU Decoded Metar

RAYONG in THAILAND
Report Time2019-07-22 15:30:00
UTC Time2019-07-22 15:49:27
Flight Rules vfr VFR
Wind180° at 05 kt
W.Decomp.*RWY 18: 5.0 kt HW -0 kt LCW
Visibility9999 m
Phenomena:N/A
Clouds:Few 020 Hf
Expected CloudBase > 2,000 ft AGL from Temp-Dew spread
CeilingNone
Temp29°C (ISA +14)
Dew Point24°C (74% RH)
Heat Index33.5°C
QNH1008 hPa
Density Alt2,188 ft
Elevation16 ft
Report Wrong Elevation
Raw Report
VTBU 221530Z 18005KT 9999 FEW020 29/24 Q1008 NOSIG=

Extra information for VTBU:More info

Metar Taf Metar & Taf Last 4 Metars F.Rules Stats Wind Profile Meteogram Temp Stats Airport Information Weather charts Add Link Nearby VenuesMetar ALERT Operation Metar Decoded Social comments